createdAt,value
2018-01-02T00:03:34.383Z,99562.98
2018-01-02T00:08:36.448Z,99570.95
2018-01-02T00:13:37.780Z,99573.89
2018-01-02T00:18:39.146Z,99572.70
2018-01-02T00:23:40.503Z,99591.52
2018-01-02T00:28:41.906Z,99594.05
2018-01-02T00:33:43.247Z,99597.34
2018-01-02T00:38:44.589Z,99600.13
2018-01-02T00:43:45.945Z,99602.44
2018-01-02T00:48:47.283Z,99613.59
2018-01-02T00:53:48.603Z,99615.56
2018-01-02T00:58:49.928Z,99629.59
2018-01-02T01:03:51.251Z,99644.38
2018-01-02T01:08:58.924Z,99644.30
2018-01-02T01:14:01.566Z,99656.08
2018-01-02T01:19:03.376Z,99660.66
2018-01-02T01:24:04.696Z,99668.27
2018-01-02T01:29:06.014Z,99671.28
2018-01-02T01:34:07.323Z,99675.42
2018-01-02T01:39:09.386Z,99682.00
2018-01-02T01:44:10.739Z,99683.88
2018-01-02T01:49:12.140Z,99692.31
2018-01-02T01:54:14.279Z,99709.91
2018-01-02T01:59:15.651Z,99704.84
2018-01-02T02:04:18.176Z,99717.94
2018-01-02T02:09:19.508Z,99723.12
2018-01-02T02:14:20.837Z,99725.73
2018-01-02T02:19:25.050Z,99736.66
2018-01-02T02:24:29.646Z,99742.78
2018-01-02T02:29:32.249Z,99749.42
2018-01-02T02:34:34.315Z,99755.77
2018-01-02T02:39:35.721Z,99760.19
2018-01-02T02:44:37.059Z,99764.83
2018-01-02T02:49:38.380Z,99766.67
2018-01-02T02:54:39.728Z,99773.44
2018-01-02T02:59:41.076Z,99782.92
2018-01-02T03:04:42.419Z,99788.02
2018-01-02T03:09:43.752Z,99787.63
2018-01-02T03:14:45.099Z,99799.59
2018-01-02T03:19:46.413Z,99807.55
2018-01-02T03:24:47.747Z,99806.42
2018-01-02T03:29:49.827Z,99813.25
2018-01-02T03:34:51.253Z,99815.23
2018-01-02T03:39:57.040Z,99839.85
2018-01-02T03:45:01.661Z,99840.17
2018-01-02T03:50:03.412Z,99860.01
2018-01-02T03:55:05.199Z,99861.23
2018-01-02T04:00:07.301Z,99870.19
2018-01-02T04:05:08.632Z,99873.46
2018-01-02T04:10:09.955Z,99880.59
2018-01-02T04:15:11.270Z,99885.69
2018-01-02T04:20:12.608Z,99894.44
2018-01-02T04:25:13.960Z,99903.98
2018-01-02T04:30:16.031Z,99909.20
2018-01-02T04:35:17.627Z,99846.02
2018-01-02T04:40:18.989Z,99926.14
2018-01-02T04:45:20.348Z,99937.36
2018-01-02T04:50:26.567Z,99944.37
2018-01-02T04:55:29.183Z,99948.91
2018-01-02T05:00:31.659Z,99965.21
2018-01-02T05:05:34.372Z,99977.06
2018-01-02T05:10:36.966Z,99983.19
2018-01-02T05:15:39.120Z,99994.27
2018-01-02T05:20:40.441Z,99994.27
2018-01-02T05:25:41.801Z,100005.48
2018-01-02T05:30:43.152Z,100011.54
2018-01-02T05:35:44.466Z,100024.03
2018-01-02T05:40:45.802Z,100034.05
2018-01-02T05:45:47.160Z,100038.50
2018-01-02T05:50:48.499Z,100047.47
2018-01-02T05:55:49.877Z,100064.39
2018-01-02T06:00:51.303Z,100066.88
2018-01-02T06:05:57.855Z,100082.16
2018-01-02T06:11:00.172Z,100087.75
2018-01-02T06:16:02.379Z,100091.77
2018-01-02T06:21:03.796Z,100096.41
2018-01-02T06:26:05.277Z,100102.71
2018-01-02T06:31:06.723Z,100100.31
2018-01-02T06:36:08.084Z,100110.57
2018-01-02T06:41:09.434Z,100116.22
2018-01-02T06:46:11.572Z,100139.86
2018-01-02T06:51:12.924Z,100153.92
2018-01-02T06:56:14.235Z,100161.44
2018-01-02T07:01:16.328Z,100176.95
2018-01-02T07:06:18.433Z,100188.95
2018-01-02T07:11:19.821Z,100192.03
2018-01-02T07:16:21.199Z,100195.14
2018-01-02T07:21:27.138Z,100208.81
2018-01-02T07:26:29.246Z,100215.17
2018-01-02T07:31:31.659Z,100226.13
2018-01-02T07:36:33.731Z,100229.59
2018-01-02T07:41:35.083Z,100239.68
2018-01-02T07:46:36.399Z,100230.59
2018-01-02T07:51:37.724Z,100242.38
2018-01-02T07:56:39.785Z,100256.34
2018-01-02T08:01:41.158Z,100263.68
2018-01-02T08:06:42.526Z,100259.25
2018-01-02T08:11:43.892Z,100267.34
2018-01-02T08:16:45.288Z,100277.08
2018-01-02T08:21:47.427Z,100283.45
2018-01-02T08:26:48.737Z,100296.42
2018-01-02T08:31:50.820Z,100306.13
2018-01-02T08:36:55.991Z,100313.39
2018-01-02T08:41:58.281Z,100312.77
2018-01-02T08:47:01.216Z,100314.59
2018-01-02T08:52:03.291Z,100321.56
2018-01-02T08:57:10.151Z,100333.30
2018-01-02T09:02:12.418Z,100350.11
2018-01-02T09:07:14.084Z,100351.75
2018-01-02T09:12:21.594Z,100352.16
2018-01-02T09:17:22.943Z,100352.08
2018-01-02T09:22:24.323Z,100360.76
2018-01-02T09:27:25.674Z,100367.80
2018-01-02T09:32:27.007Z,100369.11
2018-01-02T09:37:28.375Z,100377.43
2018-01-02T09:42:29.731Z,100381.25
2018-01-02T09:47:31.854Z,100390.75
2018-01-02T09:52:33.206Z,100387.27
2018-01-02T09:57:38.488Z,100387.83
2018-01-02T10:02:41.104Z,100404.01
2018-01-02T10:07:43.977Z,100410.03
2018-01-02T10:12:45.468Z,100416.77
2018-01-02T10:17:47.171Z,100405.38
2018-01-02T10:22:50.165Z,100421.41
2018-01-02T10:27:52.911Z,100433.19
2018-01-02T10:32:54.621Z,100434.14
2018-01-02T10:37:55.966Z,100432.72
2018-01-02T10:42:57.346Z,100439.25
2018-01-02T10:47:58.708Z,100447.13
2018-01-02T10:53:00.063Z,100454.52
2018-01-02T10:58:02.177Z,100452.78
2018-01-02T11:03:03.519Z,100450.48
2018-01-02T11:08:04.892Z,100457.55
2018-01-02T11:13:10.273Z,100468.54
2018-01-02T11:18:11.657Z,100463.63
2018-01-02T11:23:13.082Z,100464.34
2018-01-02T11:28:14.438Z,100460.01
2018-01-02T11:33:15.788Z,100461.87
2018-01-02T11:38:17.856Z,100475.52
2018-01-02T11:43:19.204Z,100479.32
2018-01-02T11:48:20.540Z,100488.31
2018-01-02T11:53:21.886Z,100496.64
2018-01-02T11:58:23.217Z,100501.77
2018-01-02T12:03:24.572Z,100511.83
2018-01-02T12:08:28.520Z,100506.41
2018-01-02T12:13:33.040Z,100507.25
2018-01-02T12:18:36.207Z,100516.45
2018-01-02T12:23:37.572Z,100512.06
2018-01-02T12:28:39.345Z,100506.94
2018-01-02T12:33:40.924Z,100513.69
2018-01-02T12:38:43.030Z,100510.25
2018-01-02T12:43:44.364Z,100515.03
2018-01-02T12:48:45.858Z,100506.33
2018-01-02T12:53:47.322Z,100505.63
2018-01-02T12:58:49.406Z,100498.37
2018-01-02T13:03:51.862Z,100498.00
2018-01-02T13:08:53.456Z,100484.73
2018-01-02T13:13:54.775Z,100493.38
2018-01-02T13:18:58.553Z,100487.31
2018-01-02T13:24:02.013Z,100496.58
2018-01-02T13:29:04.742Z,100506.06
2018-01-02T13:34:08.120Z,100506.78
2018-01-02T13:39:09.719Z,100508.50
2018-01-02T13:44:11.815Z,100505.42
2018-01-02T13:49:13.888Z,100510.36
2018-01-02T13:54:15.195Z,100517.42
2018-01-02T13:59:16.639Z,100521.72
2018-01-02T14:04:18.127Z,100514.47
2018-01-02T14:09:19.498Z,100525.06
2018-01-02T14:14:20.819Z,100527.66
2018-01-02T14:19:22.183Z,100535.77
2018-01-02T14:24:23.498Z,100536.92
2018-01-02T14:29:24.903Z,100537.12
2018-01-02T14:34:26.262Z,100520.78
2018-01-02T14:39:27.615Z,100523.72
2018-01-02T14:44:28.959Z,100516.16
2018-01-02T14:49:30.315Z,100522.97
2018-01-02T14:54:37.186Z,100510.19
2018-01-02T14:59:39.698Z,100507.70
2018-01-02T15:04:41.660Z,100520.84
2018-01-02T15:09:43.077Z,100522.58
2018-01-02T15:14:44.426Z,100513.21
2018-01-02T15:19:45.829Z,100510.16
2018-01-02T15:24:47.879Z,100499.73
2018-01-02T15:29:49.334Z,100505.33
2018-01-02T15:34:50.961Z,100502.95
2018-01-02T15:39:52.299Z,100509.09
2018-01-02T15:44:54.599Z,100504.08
2018-01-02T15:49:55.995Z,100499.77
2018-01-02T15:54:57.384Z,100505.86
2018-01-02T15:59:58.752Z,100518.50
2018-01-02T16:05:00.139Z,100524.32
2018-01-02T16:10:03.506Z,100529.39
2018-01-02T16:15:06.839Z,100533.70
2018-01-02T16:20:09.591Z,100536.27
2018-01-02T16:25:12.129Z,100538.29
2018-01-02T16:30:13.655Z,100535.59
2018-01-02T16:35:15.024Z,100543.70
2018-01-02T16:40:16.376Z,100546.27
2018-01-02T16:45:18.452Z,100542.83
2018-01-02T16:50:19.785Z,100543.64
2018-01-02T16:55:21.114Z,100534.75
2018-01-02T17:00:22.488Z,100516.76
2018-01-02T17:05:23.816Z,100518.45
2018-01-02T17:10:25.147Z,100500.90
2018-01-02T17:15:26.482Z,100485.68
2018-01-02T17:20:27.798Z,100473.75
2018-01-02T17:25:29.853Z,100462.95
2018-01-02T17:30:32.129Z,100446.79
2018-01-02T17:35:34.315Z,100430.86
2018-01-02T17:40:36.442Z,100424.59
2018-01-02T17:45:38.493Z,100423.59
2018-01-02T17:50:39.836Z,100423.06
2018-01-02T17:55:41.903Z,100414.38
2018-01-02T18:00:43.267Z,100419.39
2018-01-02T18:05:44.580Z,100398.91
2018-01-02T18:10:45.907Z,100388.34
2018-01-02T18:15:47.998Z,100403.55
2018-01-02T18:20:49.354Z,100384.20
2018-01-02T18:25:50.687Z,100373.11
2018-01-02T18:30:52.776Z,100370.28
2018-01-02T18:35:57.699Z,100362.68
2018-01-02T18:41:02.264Z,100351.64
2018-01-02T18:46:06.094Z,100343.06
2018-01-02T18:51:07.583Z,100325.62
2018-01-02T18:56:08.973Z,100325.34
2018-01-02T19:01:10.392Z,100305.16
2018-01-02T19:06:11.781Z,100303.23
2018-01-02T19:11:13.158Z,100290.48
2018-01-02T19:16:16.634Z,100278.22
2018-01-02T19:21:18.729Z,100265.83
2018-01-02T19:26:20.125Z,100241.67
2018-01-02T19:31:21.462Z,100242.06
2018-01-02T19:36:22.796Z,100221.52
2018-01-02T19:41:28.542Z,100223.05
2018-01-02T19:46:31.375Z,100226.84
2018-01-02T19:51:33.942Z,100208.16
2018-01-02T19:56:35.333Z,100206.75
2018-01-02T20:01:36.692Z,100189.53
2018-01-02T20:06:38.108Z,100168.00
2018-01-02T20:11:40.191Z,100172.69
2018-01-02T20:16:41.585Z,100174.89
2018-01-02T20:21:43.016Z,100154.27
2018-01-02T20:26:44.370Z,100146.58
2018-01-02T20:31:46.504Z,100131.05
2018-01-02T20:36:47.852Z,100112.13
2018-01-02T20:41:49.208Z,100091.81
2018-01-02T20:46:50.580Z,100061.63
2018-01-02T20:51:51.991Z,100053.00
2018-01-02T20:56:53.525Z,100038.27
2018-01-02T21:01:59.263Z,100036.66
2018-01-02T21:07:02.118Z,100012.52
2018-01-02T21:12:04.060Z,100007.66
2018-01-02T21:17:05.431Z,99993.00
2018-01-02T21:22:06.843Z,99978.67
2018-01-02T21:27:08.218Z,99959.31
2018-01-02T21:32:09.612Z,99939.80
2018-01-02T21:37:11.030Z,99932.55
2018-01-02T21:42:12.481Z,99918.16
2018-01-02T21:47:13.835Z,99889.09
2018-01-02T21:52:15.235Z,99872.41
2018-01-02T21:57:16.613Z,99842.91
2018-01-02T22:02:18.019Z,99835.52
2018-01-02T22:07:19.376Z,99819.28
2018-01-02T22:12:21.503Z,99794.50
2018-01-02T22:17:22.933Z,99765.56
2018-01-02T22:22:29.710Z,99753.45
2018-01-02T22:27:33.757Z,99750.45
2018-01-02T22:32:36.105Z,99718.73
2018-01-02T22:37:37.480Z,99717.51
2018-01-02T22:42:39.365Z,99690.16
2018-01-02T22:47:40.734Z,99670.46
2018-01-02T22:52:42.059Z,99657.78
2018-01-02T22:57:43.549Z,99638.87
2018-01-02T23:02:44.908Z,99622.38
2018-01-02T23:07:46.316Z,99579.98
2018-01-02T23:12:48.396Z,99565.36
2018-01-02T23:17:49.755Z,99528.80
2018-01-02T23:22:51.124Z,99521.17
2018-01-02T23:27:52.508Z,99520.75
2018-01-02T23:32:59.181Z,99505.15
2018-01-02T23:38:02.410Z,99488.67
2018-01-02T23:43:04.433Z,99458.86
2018-01-02T23:48:05.861Z,99444.91
2018-01-02T23:53:07.975Z,99420.14
2018-01-02T23:58:09.348Z,99399.20
